sensor_id;sensor_type;location;lat;lon;timestamp;temperature;humidity
18444;DHT22;9350;53.176;8.194;2022-12-20T00:01:06;6.00;99.90
18444;DHT22;9350;53.176;8.194;2022-12-20T00:03:34;6.00;99.90
18444;DHT22;9350;53.176;8.194;2022-12-20T00:06:01;6.00;99.90
18444;DHT22;9350;53.176;8.194;2022-12-20T00:08:28;6.00;99.90
18444;DHT22;9350;53.176;8.194;2022-12-20T00:10:54;6.10;99.90
18444;DHT22;9350;53.176;8.194;2022-12-20T00:13:21;6.10;99.90
18444;DHT22;9350;53.176;8.194;2022-12-20T00:15:48;6.10;99.90
18444;DHT22;9350;53.176;8.194;2022-12-20T00:18:14;6.10;99.90
18444;DHT22;9350;53.176;8.194;2022-12-20T00:20:42;6.10;99.90
18444;DHT22;9350;53.176;8.194;2022-12-20T00:23:09;6.10;99.90
18444;DHT22;9350;53.176;8.194;2022-12-20T00:25:36;6.10;99.90
18444;DHT22;9350;53.176;8.194;2022-12-20T00:28:03;6.10;99.90
18444;DHT22;9350;53.176;8.194;2022-12-20T00:30:29;6.10;99.90
18444;DHT22;9350;53.176;8.194;2022-12-20T00:32:56;6.20;99.90
18444;DHT22;9350;53.176;8.194;2022-12-20T00:35:23;6.10;99.90
18444;DHT22;9350;53.176;8.194;2022-12-20T00:37:51;6.30;99.90
18444;DHT22;9350;53.176;8.194;2022-12-20T00:40:18;6.20;99.90
18444;DHT22;9350;53.176;8.194;2022-12-20T00:42:45;6.20;99.90
18444;DHT22;9350;53.176;8.194;2022-12-20T00:45:11;6.20;99.90
18444;DHT22;9350;53.176;8.194;2022-12-20T00:47:38;6.20;99.90
18444;DHT22;9350;53.176;8.194;2022-12-20T00:50:06;6.20;99.90
18444;DHT22;9350;53.176;8.194;2022-12-20T00:52:33;6.30;99.90
18444;DHT22;9350;53.176;8.194;2022-12-20T00:55:01;6.30;99.90
18444;DHT22;9350;53.176;8.194;2022-12-20T00:57:27;6.30;99.90
18444;DHT22;9350;53.176;8.194;2022-12-20T00:59:54;6.30;99.90
18444;DHT22;9350;53.176;8.194;2022-12-20T01:02:21;6.30;99.90
18444;DHT22;9350;53.176;8.194;2022-12-20T01:04:48;6.30;99.90
18444;DHT22;9350;53.176;8.194;2022-12-20T01:07:14;6.30;99.90
18444;DHT22;9350;53.176;8.194;2022-12-20T01:09:41;6.30;99.90
18444;DHT22;9350;53.176;8.194;2022-12-20T01:12:09;6.30;99.90
18444;DHT22;9350;53.176;8.194;2022-12-20T01:14:36;6.30;99.90
18444;DHT22;9350;53.176;8.194;2022-12-20T01:17:03;6.30;99.90
18444;DHT22;9350;53.176;8.194;2022-12-20T01:19:30;6.30;99.90
18444;DHT22;9350;53.176;8.194;2022-12-20T01:21:56;6.30;99.90
18444;DHT22;9350;53.176;8.194;2022-12-20T01:24:23;6.30;99.90
18444;DHT22;9350;53.176;8.194;2022-12-20T01:26:50;6.30;99.90
18444;DHT22;9350;53.176;8.194;2022-12-20T01:29:18;6.30;99.90
18444;DHT22;9350;53.176;8.194;2022-12-20T01:31:46;6.30;99.90
18444;DHT22;9350;53.176;8.194;2022-12-20T01:34:13;6.30;99.90
18444;DHT22;9350;53.176;8.194;2022-12-20T01:36:39;6.30;99.90
18444;DHT22;9350;53.176;8.194;2022-12-20T01:39:08;6.40;99.90
18444;DHT22;9350;53.176;8.194;2022-12-20T01:41:37;6.40;99.90
18444;DHT22;9350;53.176;8.194;2022-12-20T01:44:05;6.40;99.90
18444;DHT22;9350;53.176;8.194;2022-12-20T01:46:53;6.40;99.90
18444;DHT22;9350;53.176;8.194;2022-12-20T01:49:22;6.50;99.90
18444;DHT22;9350;53.176;8.194;2022-12-20T01:51:55;6.40;99.90
18444;DHT22;9350;53.176;8.194;2022-12-20T01:54:25;6.50;99.90
18444;DHT22;9350;53.176;8.194;2022-12-20T01:56:56;6.40;99.90
18444;DHT22;9350;53.176;8.194;2022-12-20T01:59:24;6.50;99.90
18444;DHT22;9350;53.176;8.194;2022-12-20T02:01:55;6.60;99.90
18444;DHT22;9350;53.176;8.194;2022-12-20T02:04:23;6.50;99.90
18444;DHT22;9350;53.176;8.194;2022-12-20T02:06:50;6.50;99.90
18444;DHT22;9350;53.176;8.194;2022-12-20T02:09:16;6.50;99.90
18444;DHT22;9350;53.176;8.194;2022-12-20T02:11:56;6.60;99.90
18444;DHT22;9350;53.176;8.194;2022-12-20T02:14:35;6.60;99.90
18444;DHT22;9350;53.176;8.194;2022-12-20T02:17:13;6.60;99.90
18444;DHT22;9350;53.176;8.194;2022-12-20T02:20:08;6.50;99.90
18444;DHT22;9350;53.176;8.194;2022-12-20T02:22:54;6.50;99.90
18444;DHT22;9350;53.176;8.194;2022-12-20T02:25:45;6.60;99.90
18444;DHT22;9350;53.176;8.194;2022-12-20T02:28:37;6.70;99.90
18444;DHT22;9350;53.176;8.194;2022-12-20T02:31:11;6.60;99.90
18444;DHT22;9350;53.176;8.194;2022-12-20T02:33:41;6.60;99.90
18444;DHT22;9350;53.176;8.194;2022-12-20T02:36:09;6.60;99.90
18444;DHT22;9350;53.176;8.194;2022-12-20T02:38:37;6.60;99.90
18444;DHT22;9350;53.176;8.194;2022-12-20T02:41:06;6.60;99.90
18444;DHT22;9350;53.176;8.194;2022-12-20T02:43:36;6.70;99.90
18444;DHT22;9350;53.176;8.194;2022-12-20T02:46:25;6.60;99.90
18444;DHT22;9350;53.176;8.194;2022-12-20T02:48:54;6.60;99.90
18444;DHT22;9350;53.176;8.194;2022-12-20T02:51:22;6.60;99.90
18444;DHT22;9350;53.176;8.194;2022-12-20T02:53:52;6.60;99.90
18444;DHT22;9350;53.176;8.194;2022-12-20T02:56:21;6.60;99.90
18444;DHT22;9350;53.176;8.194;2022-12-20T02:58:54;6.60;99.90
18444;DHT22;9350;53.176;8.194;2022-12-20T03:01:26;6.60;99.90
18444;DHT22;9350;53.176;8.194;2022-12-20T03:03:54;6.60;99.90
18444;DHT22;9350;53.176;8.194;2022-12-20T03:06:22;6.60;99.90
18444;DHT22;9350;53.176;8.194;2022-12-20T03:08:49;6.50;99.90
18444;DHT22;9350;53.176;8.194;2022-12-20T03:11:15;6.50;99.90
18444;DHT22;9350;53.176;8.194;2022-12-20T03:13:42;6.60;99.90
18444;DHT22;9350;53.176;8.194;2022-12-20T03:16:09;6.50;99.90
18444;DHT22;9350;53.176;8.194;2022-12-20T03:18:37;6.60;99.90
18444;DHT22;9350;53.176;8.194;2022-12-20T03:21:04;6.60;99.90
18444;DHT22;9350;53.176;8.194;2022-12-20T03:23:31;6.50;99.90
18444;DHT22;9350;53.176;8.194;2022-12-20T03:25:58;6.60;99.90
18444;DHT22;9350;53.176;8.194;2022-12-20T03:28:24;6.60;99.90
18444;DHT22;9350;53.176;8.194;2022-12-20T03:30:51;6.60;99.90
18444;DHT22;9350;53.176;8.194;2022-12-20T03:33:18;6.70;99.90
18444;DHT22;9350;53.176;8.194;2022-12-20T03:35:46;6.60;99.90
18444;DHT22;9350;53.176;8.194;2022-12-20T03:38:13;6.70;99.90
18444;DHT22;9350;53.176;8.194;2022-12-20T03:40:40;6.70;99.90
18444;DHT22;9350;53.176;8.194;2022-12-20T03:43:07;6.70;99.90
18444;DHT22;9350;53.176;8.194;2022-12-20T03:45:34;6.70;99.90
18444;DHT22;9350;53.176;8.194;2022-12-20T03:48:00;6.80;99.90
18444;DHT22;9350;53.176;8.194;2022-12-20T03:50:27;6.70;99.90
18444;DHT22;9350;53.176;8.194;2022-12-20T03:52:55;6.70;99.90
18444;DHT22;9350;53.176;8.194;2022-12-20T03:55:22;6.80;99.90
18444;DHT22;9350;53.176;8.194;2022-12-20T03:57:48;6.80;99.90
18444;DHT22;9350;53.176;8.194;2022-12-20T04:00:16;6.80;99.90
18444;DHT22;9350;53.176;8.194;2022-12-20T04:02:43;6.70;99.90
18444;DHT22;9350;53.176;8.194;2022-12-20T04:05:10;6.70;99.90
18444;DHT22;9350;53.176;8.194;2022-12-20T04:07:37;6.80;99.90
18444;DHT22;9350;53.176;8.194;2022-12-20T04:10:07;6.80;99.90
18444;DHT22;9350;53.176;8.194;2022-12-20T04:12:34;6.80;99.90
18444;DHT22;9350;53.176;8.194;2022-12-20T04:15:00;6.80;99.90
18444;DHT22;9350;53.176;8.194;2022-12-20T04:17:27;6.80;99.90
18444;DHT22;9350;53.176;8.194;2022-12-20T04:19:54;6.80;99.90
18444;DHT22;9350;53.176;8.194;2022-12-20T04:22:20;6.80;99.90
18444;DHT22;9350;53.176;8.194;2022-12-20T04:24:47;6.90;99.90
18444;DHT22;9350;53.176;8.194;2022-12-20T04:27:15;6.80;99.90
18444;DHT22;9350;53.176;8.194;2022-12-20T04:29:42;6.80;99.90
18444;DHT22;9350;53.176;8.194;2022-12-20T04:32:09;6.90;99.90
18444;DHT22;9350;53.176;8.194;2022-12-20T04:34:35;6.80;99.90
18444;DHT22;9350;53.176;8.194;2022-12-20T04:37:02;6.90;99.90
18444;DHT22;9350;53.176;8.194;2022-12-20T04:39:29;6.80;99.90
18444;DHT22;9350;53.176;8.194;2022-12-20T04:41:55;6.90;99.90
18444;DHT22;9350;53.176;8.194;2022-12-20T04:44:23;6.90;99.90
18444;DHT22;9350;53.176;8.194;2022-12-20T04:46:51;6.80;99.90
18444;DHT22;9350;53.176;8.194;2022-12-20T04:49:18;6.90;99.90
18444;DHT22;9350;53.176;8.194;2022-12-20T04:51:44;6.80;99.90
18444;DHT22;9350;53.176;8.194;2022-12-20T04:54:11;6.90;99.90
18444;DHT22;9350;53.176;8.194;2022-12-20T04:56:37;6.90;99.90
18444;DHT22;9350;53.176;8.194;2022-12-20T04:59:04;6.90;99.90
18444;DHT22;9350;53.176;8.194;2022-12-20T05:01:32;6.90;99.90
18444;DHT22;9350;53.176;8.194;2022-12-20T05:03:59;6.90;99.90
18444;DHT22;9350;53.176;8.194;2022-12-20T05:06:26;6.90;99.90
18444;DHT22;9350;53.176;8.194;2022-12-20T05:08:53;6.90;99.90
18444;DHT22;9350;53.176;8.194;2022-12-20T05:11:20;6.90;99.90
18444;DHT22;9350;53.176;8.194;2022-12-20T05:13:46;6.90;99.90
18444;DHT22;9350;53.176;8.194;2022-12-20T05:16:13;6.90;99.90
18444;DHT22;9350;53.176;8.194;2022-12-20T05:18:41;6.90;99.90
18444;DHT22;9350;53.176;8.194;2022-12-20T05:21:08;7.00;99.90
18444;DHT22;9350;53.176;8.194;2022-12-20T05:23:52;6.90;99.90
18444;DHT22;9350;53.176;8.194;2022-12-20T05:26:37;7.00;99.90
18444;DHT22;9350;53.176;8.194;2022-12-20T05:29:04;7.00;99.90
18444;DHT22;9350;53.176;8.194;2022-12-20T05:31:32;6.90;99.90
18444;DHT22;9350;53.176;8.194;2022-12-20T05:34:00;6.90;99.90
18444;DHT22;9350;53.176;8.194;2022-12-20T05:36:26;7.00;99.90
18444;DHT22;9350;53.176;8.194;2022-12-20T05:38:54;7.00;99.90
18444;DHT22;9350;53.176;8.194;2022-12-20T05:41:21;7.10;99.90
18444;DHT22;9350;53.176;8.194;2022-12-20T05:43:48;7.10;99.90
18444;DHT22;9350;53.176;8.194;2022-12-20T05:46:14;7.00;99.90
18444;DHT22;9350;53.176;8.194;2022-12-20T05:48:41;7.10;99.90
18444;DHT22;9350;53.176;8.194;2022-12-20T05:51:09;7.10;99.90
18444;DHT22;9350;53.176;8.194;2022-12-20T05:53:36;7.20;99.90
18444;DHT22;9350;53.176;8.194;2022-12-20T05:56:03;7.10;99.90
18444;DHT22;9350;53.176;8.194;2022-12-20T05:58:30;7.20;99.90
18444;DHT22;9350;53.176;8.194;2022-12-20T06:00:59;7.20;99.90
18444;DHT22;9350;53.176;8.194;2022-12-20T06:03:26;7.20;99.90
18444;DHT22;9350;53.176;8.194;2022-12-20T06:05:52;7.20;99.90
18444;DHT22;9350;53.176;8.194;2022-12-20T06:08:21;7.30;99.90
18444;DHT22;9350;53.176;8.194;2022-12-20T06:10:48;7.30;99.90
18444;DHT22;9350;53.176;8.194;2022-12-20T06:13:16;7.30;99.90
18444;DHT22;9350;53.176;8.194;2022-12-20T06:15:43;7.30;99.90
18444;DHT22;9350;53.176;8.194;2022-12-20T06:18:09;7.30;99.90
18444;DHT22;9350;53.176;8.194;2022-12-20T06:20:37;7.30;99.90
18444;DHT22;9350;53.176;8.194;2022-12-20T06:23:03;7.30;99.90
18444;DHT22;9350;53.176;8.194;2022-12-20T06:25:32;7.30;99.90
18444;DHT22;9350;53.176;8.194;2022-12-20T06:27:59;7.30;99.90
18444;DHT22;9350;53.176;8.194;2022-12-20T06:30:26;7.30;99.90
18444;DHT22;9350;53.176;8.194;2022-12-20T06:32:52;7.30;99.90
18444;DHT22;9350;53.176;8.194;2022-12-20T06:35:19;7.30;99.90
18444;DHT22;9350;53.176;8.194;2022-12-20T06:37:46;7.40;99.90
18444;DHT22;9350;53.176;8.194;2022-12-20T06:40:13;7.40;99.90
18444;DHT22;9350;53.176;8.194;2022-12-20T06:42:42;7.40;99.90
18444;DHT22;9350;53.176;8.194;2022-12-20T06:45:09;7.50;99.90
18444;DHT22;9350;53.176;8.194;2022-12-20T06:47:36;7.40;99.90
18444;DHT22;9350;53.176;8.194;2022-12-20T06:50:05;7.40;99.90
18444;DHT22;9350;53.176;8.194;2022-12-20T06:52:32;7.40;99.90
18444;DHT22;9350;53.176;8.194;2022-12-20T06:54:59;7.30;99.90
18444;DHT22;9350;53.176;8.194;2022-12-20T06:57:25;7.40;99.90
18444;DHT22;9350;53.176;8.194;2022-12-20T06:59:54;7.40;99.90
18444;DHT22;9350;53.176;8.194;2022-12-20T07:02:20;7.50;99.90
18444;DHT22;9350;53.176;8.194;2022-12-20T07:04:47;7.50;99.90
18444;DHT22;9350;53.176;8.194;2022-12-20T07:07:14;7.50;99.90
18444;DHT22;9350;53.176;8.194;2022-12-20T07:09:41;7.50;99.90
18444;DHT22;9350;53.176;8.194;2022-12-20T07:12:08;7.50;99.90
18444;DHT22;9350;53.176;8.194;2022-12-20T07:14:35;7.50;99.90
18444;DHT22;9350;53.176;8.194;2022-12-20T07:17:03;7.50;99.90
18444;DHT22;9350;53.176;8.194;2022-12-20T07:19:31;7.50;99.90
18444;DHT22;9350;53.176;8.194;2022-12-20T07:21:58;7.40;99.90
18444;DHT22;9350;53.176;8.194;2022-12-20T07:24:25;7.40;99.90
18444;DHT22;9350;53.176;8.194;2022-12-20T07:26:52;7.50;99.90
18444;DHT22;9350;53.176;8.194;2022-12-20T07:29:19;7.40;99.90
18444;DHT22;9350;53.176;8.194;2022-12-20T07:31:45;7.40;99.90
18444;DHT22;9350;53.176;8.194;2022-12-20T07:34:13;7.50;99.90
18444;DHT22;9350;53.176;8.194;2022-12-20T07:36:40;7.50;99.90
18444;DHT22;9350;53.176;8.194;2022-12-20T07:39:07;7.50;99.90
18444;DHT22;9350;53.176;8.194;2022-12-20T07:41:34;7.40;99.90
18444;DHT22;9350;53.176;8.194;2022-12-20T07:44:01;7.50;99.90
18444;DHT22;9350;53.176;8.194;2022-12-20T07:46:28;7.40;99.90
18444;DHT22;9350;53.176;8.194;2022-12-20T07:48:55;7.50;99.90
18444;DHT22;9350;53.176;8.194;2022-12-20T07:51:26;7.40;99.90
18444;DHT22;9350;53.176;8.194;2022-12-20T07:53:59;7.40;99.90
18444;DHT22;9350;53.176;8.194;2022-12-20T07:56:27;7.40;99.90
18444;DHT22;9350;53.176;8.194;2022-12-20T07:58:57;7.40;99.90
18444;DHT22;9350;53.176;8.194;2022-12-20T08:01:26;7.40;99.90
18444;DHT22;9350;53.176;8.194;2022-12-20T08:03:58;7.40;99.90
18444;DHT22;9350;53.176;8.194;2022-12-20T08:06:27;7.50;99.90
18444;DHT22;9350;53.176;8.194;2022-12-20T08:08:57;7.50;99.90
18444;DHT22;9350;53.176;8.194;2022-12-20T08:11:27;7.70;99.90
18444;DHT22;9350;53.176;8.194;2022-12-20T08:13:55;7.50;99.90
18444;DHT22;9350;53.176;8.194;2022-12-20T08:16:21;7.60;99.90
18444;DHT22;9350;53.176;8.194;2022-12-20T08:18:48;7.60;99.90
18444;DHT22;9350;53.176;8.194;2022-12-20T08:21:15;7.60;99.90
18444;DHT22;9350;53.176;8.194;2022-12-20T08:23:43;7.60;99.90
18444;DHT22;9350;53.176;8.194;2022-12-20T08:26:10;7.60;99.90
18444;DHT22;9350;53.176;8.194;2022-12-20T08:28:36;7.60;99.90
18444;DHT22;9350;53.176;8.194;2022-12-20T08:31:05;7.60;99.90
18444;DHT22;9350;53.176;8.194;2022-12-20T08:33:33;7.70;99.90
18444;DHT22;9350;53.176;8.194;2022-12-20T08:36:02;7.60;99.90
18444;DHT22;9350;53.176;8.194;2022-12-20T08:38:30;7.60;99.90
18444;DHT22;9350;53.176;8.194;2022-12-20T08:41:03;7.70;99.90
18444;DHT22;9350;53.176;8.194;2022-12-20T08:43:30;7.70;99.90
18444;DHT22;9350;53.176;8.194;2022-12-20T08:45:57;7.70;99.90
18444;DHT22;9350;53.176;8.194;2022-12-20T08:48:24;7.70;99.90
18444;DHT22;9350;53.176;8.194;2022-12-20T08:50:54;7.70;99.90
18444;DHT22;9350;53.176;8.194;2022-12-20T08:53:21;7.60;99.90
18444;DHT22;9350;53.176;8.194;2022-12-20T08:55:48;7.70;99.90
18444;DHT22;9350;53.176;8.194;2022-12-20T08:58:16;7.80;99.90
18444;DHT22;9350;53.176;8.194;2022-12-20T09:00:43;7.80;99.90
18444;DHT22;9350;53.176;8.194;2022-12-20T09:03:10;7.80;99.90
18444;DHT22;9350;53.176;8.194;2022-12-20T09:05:43;7.80;99.90
18444;DHT22;9350;53.176;8.194;2022-12-20T09:08:09;7.80;99.90
18444;DHT22;9350;53.176;8.194;2022-12-20T09:10:36;7.80;99.90
18444;DHT22;9350;53.176;8.194;2022-12-20T09:13:03;7.80;99.90
18444;DHT22;9350;53.176;8.194;2022-12-20T09:15:32;7.90;99.90
18444;DHT22;9350;53.176;8.194;2022-12-20T09:17:59;7.80;99.90
18444;DHT22;9350;53.176;8.194;2022-12-20T09:20:26;7.90;99.90
18444;DHT22;9350;53.176;8.194;2022-12-20T09:22:53;7.90;99.90
18444;DHT22;9350;53.176;8.194;2022-12-20T09:25:20;7.90;99.90
18444;DHT22;9350;53.176;8.194;2022-12-20T09:27:47;8.00;99.90
18444;DHT22;9350;53.176;8.194;2022-12-20T09:30:14;8.00;99.90
18444;DHT22;9350;53.176;8.194;2022-12-20T09:32:42;8.00;99.90
18444;DHT22;9350;53.176;8.194;2022-12-20T09:35:09;8.00;99.90
18444;DHT22;9350;53.176;8.194;2022-12-20T09:37:35;8.10;99.90
18444;DHT22;9350;53.176;8.194;2022-12-20T09:40:03;8.00;99.90
18444;DHT22;9350;53.176;8.194;2022-12-20T09:42:31;8.00;99.90
18444;DHT22;9350;53.176;8.194;2022-12-20T09:45:00;8.10;99.90
18444;DHT22;9350;53.176;8.194;2022-12-20T09:47:29;8.10;99.90
18444;DHT22;9350;53.176;8.194;2022-12-20T09:50:01;8.20;99.90
18444;DHT22;9350;53.176;8.194;2022-12-20T09:52:35;8.10;99.90
18444;DHT22;9350;53.176;8.194;2022-12-20T09:55:13;8.20;99.90
18444;DHT22;9350;53.176;8.194;2022-12-20T09:57:50;8.30;99.90
18444;DHT22;9350;53.176;8.194;2022-12-20T10:00:20;8.20;99.90
18444;DHT22;9350;53.176;8.194;2022-12-20T10:02:48;8.30;99.90
18444;DHT22;9350;53.176;8.194;2022-12-20T10:05:21;8.20;99.90
18444;DHT22;9350;53.176;8.194;2022-12-20T10:07:54;8.20;99.90
18444;DHT22;9350;53.176;8.194;2022-12-20T10:10:53;8.20;99.90
18444;DHT22;9350;53.176;8.194;2022-12-20T10:13:29;8.20;99.90
18444;DHT22;9350;53.176;8.194;2022-12-20T10:16:20;8.20;99.90
18444;DHT22;9350;53.176;8.194;2022-12-20T10:18:57;8.20;99.90
18444;DHT22;9350;53.176;8.194;2022-12-20T10:21:39;8.20;99.90
18444;DHT22;9350;53.176;8.194;2022-12-20T10:24:12;8.20;99.90
18444;DHT22;9350;53.176;8.194;2022-12-20T10:26:40;8.20;99.90
18444;DHT22;9350;53.176;8.194;2022-12-20T10:29:08;8.20;99.90
18444;DHT22;9350;53.176;8.194;2022-12-20T10:31:34;8.30;99.90
18444;DHT22;9350;53.176;8.194;2022-12-20T10:34:01;8.40;99.90
18444;DHT22;9350;53.176;8.194;2022-12-20T10:36:32;8.30;99.90
18444;DHT22;9350;53.176;8.194;2022-12-20T10:39:00;8.30;99.90
18444;DHT22;9350;53.176;8.194;2022-12-20T10:41:29;8.30;99.90
18444;DHT22;9350;53.176;8.194;2022-12-20T10:43:59;8.40;99.90
18444;DHT22;9350;53.176;8.194;2022-12-20T10:46:34;8.40;99.90
18444;DHT22;9350;53.176;8.194;2022-12-20T10:49:23;8.40;99.90
18444;DHT22;9350;53.176;8.194;2022-12-20T10:51:54;8.40;99.90
18444;DHT22;9350;53.176;8.194;2022-12-20T10:54:23;8.40;99.90
18444;DHT22;9350;53.176;8.194;2022-12-20T10:56:55;8.40;99.90
18444;DHT22;9350;53.176;8.194;2022-12-20T10:59:29;8.40;99.90
18444;DHT22;9350;53.176;8.194;2022-12-20T11:01:57;8.40;99.90
18444;DHT22;9350;53.176;8.194;2022-12-20T11:04:26;8.30;99.90
18444;DHT22;9350;53.176;8.194;2022-12-20T11:06:56;8.30;99.90
18444;DHT22;9350;53.176;8.194;2022-12-20T11:09:26;8.30;99.90
18444;DHT22;9350;53.176;8.194;2022-12-20T11:11:57;8.30;99.90
18444;DHT22;9350;53.176;8.194;2022-12-20T11:14:24;8.30;99.90
18444;DHT22;9350;53.176;8.194;2022-12-20T11:16:52;8.30;99.90
18444;DHT22;9350;53.176;8.194;2022-12-20T11:19:34;8.20;99.90
18444;DHT22;9350;53.176;8.194;2022-12-20T11:22:15;8.30;99.90
18444;DHT22;9350;53.176;8.194;2022-12-20T11:24:50;8.20;99.90
18444;DHT22;9350;53.176;8.194;2022-12-20T11:27:30;8.30;99.90
18444;DHT22;9350;53.176;8.194;2022-12-20T11:30:08;8.20;99.90
18444;DHT22;9350;53.176;8.194;2022-12-20T11:35:48;8.20;99.90
18444;DHT22;9350;53.176;8.194;2022-12-20T11:38:34;8.20;99.90
18444;DHT22;9350;53.176;8.194;2022-12-20T11:41:19;8.20;99.90
18444;DHT22;9350;53.176;8.194;2022-12-20T11:43:59;8.20;99.90
18444;DHT22;9350;53.176;8.194;2022-12-20T11:46:37;8.20;99.90
18444;DHT22;9350;53.176;8.194;2022-12-20T11:49:17;8.20;99.90
18444;DHT22;9350;53.176;8.194;2022-12-20T11:51:49;8.20;99.90
18444;DHT22;9350;53.176;8.194;2022-12-20T11:54:26;8.20;99.90
18444;DHT22;9350;53.176;8.194;2022-12-20T11:56:57;8.30;99.90
18444;DHT22;9350;53.176;8.194;2022-12-20T11:59:30;8.10;99.90
18444;DHT22;9350;53.176;8.194;2022-12-20T12:02:03;8.20;99.90
18444;DHT22;9350;53.176;8.194;2022-12-20T12:04:33;8.20;99.90
18444;DHT22;9350;53.176;8.194;2022-12-20T12:07:07;8.20;99.90
18444;DHT22;9350;53.176;8.194;2022-12-20T12:09:39;8.20;99.90
18444;DHT22;9350;53.176;8.194;2022-12-20T12:12:10;8.30;99.90
18444;DHT22;9350;53.176;8.194;2022-12-20T12:14:45;8.30;99.90
18444;DHT22;9350;53.176;8.194;2022-12-20T12:17:20;8.30;99.90
18444;DHT22;9350;53.176;8.194;2022-12-20T12:19:49;8.40;99.90
18444;DHT22;9350;53.176;8.194;2022-12-20T12:22:26;8.50;99.90
18444;DHT22;9350;53.176;8.194;2022-12-20T12:24:59;8.50;99.90
18444;DHT22;9350;53.176;8.194;2022-12-20T12:27:27;8.40;99.90
18444;DHT22;9350;53.176;8.194;2022-12-20T12:29:56;8.40;99.90
18444;DHT22;9350;53.176;8.194;2022-12-20T12:32:27;8.40;99.90
18444;DHT22;9350;53.176;8.194;2022-12-20T12:35:06;8.40;99.90
18444;DHT22;9350;53.176;8.194;2022-12-20T12:37:45;8.50;99.90
18444;DHT22;9350;53.176;8.194;2022-12-20T12:43:43;8.50;99.90
18444;DHT22;9350;53.176;8.194;2022-12-20T12:46:12;8.50;99.90
18444;DHT22;9350;53.176;8.194;2022-12-20T12:48:42;8.50;99.90
18444;DHT22;9350;53.176;8.194;2022-12-20T12:51:13;8.50;99.90
18444;DHT22;9350;53.176;8.194;2022-12-20T12:53:42;8.50;99.90
18444;DHT22;9350;53.176;8.194;2022-12-20T12:56:39;8.50;99.90
18444;DHT22;9350;53.176;8.194;2022-12-20T12:59:18;8.50;99.90
18444;DHT22;9350;53.176;8.194;2022-12-20T13:01:49;8.50;99.90
18444;DHT22;9350;53.176;8.194;2022-12-20T13:04:26;8.60;99.90
18444;DHT22;9350;53.176;8.194;2022-12-20T13:06:57;8.50;99.90
18444;DHT22;9350;53.176;8.194;2022-12-20T13:09:41;8.50;99.90
18444;DHT22;9350;53.176;8.194;2022-12-20T13:18:22;8.60;99.90
18444;DHT22;9350;53.176;8.194;2022-12-20T13:27:15;8.50;99.90
18444;DHT22;9350;53.176;8.194;2022-12-20T13:30:01;8.50;99.90
18444;DHT22;9350;53.176;8.194;2022-12-20T13:38:56;8.50;99.90
18444;DHT22;9350;53.176;8.194;2022-12-20T13:41:35;8.50;99.90
18444;DHT22;9350;53.176;8.194;2022-12-20T13:44:20;8.50;99.90
18444;DHT22;9350;53.176;8.194;2022-12-20T13:46:53;8.60;99.90
18444;DHT22;9350;53.176;8.194;2022-12-20T13:49:25;8.50;99.90
18444;DHT22;9350;53.176;8.194;2022-12-20T13:52:20;8.60;99.90
18444;DHT22;9350;53.176;8.194;2022-12-20T13:54:50;8.50;99.90
18444;DHT22;9350;53.176;8.194;2022-12-20T13:57:23;8.60;99.90
18444;DHT22;9350;53.176;8.194;2022-12-20T13:59:53;8.50;99.90
18444;DHT22;9350;53.176;8.194;2022-12-20T14:02:23;8.50;99.90
18444;DHT22;9350;53.176;8.194;2022-12-20T14:04:57;8.30;99.90
18444;DHT22;9350;53.176;8.194;2022-12-20T14:07:27;8.40;99.90
18444;DHT22;9350;53.176;8.194;2022-12-20T14:09:56;8.50;99.90
18444;DHT22;9350;53.176;8.194;2022-12-20T14:12:23;8.30;99.90
18444;DHT22;9350;53.176;8.194;2022-12-20T14:14:50;8.40;99.90
18444;DHT22;9350;53.176;8.194;2022-12-20T14:17:22;8.50;99.90
18444;DHT22;9350;53.176;8.194;2022-12-20T14:20:03;8.50;99.90
18444;DHT22;9350;53.176;8.194;2022-12-20T14:22:32;8.50;99.90
18444;DHT22;9350;53.176;8.194;2022-12-20T14:24:59;8.40;99.90
18444;DHT22;9350;53.176;8.194;2022-12-20T14:27:32;8.40;99.90
18444;DHT22;9350;53.176;8.194;2022-12-20T14:29:59;8.40;99.90
18444;DHT22;9350;53.176;8.194;2022-12-20T14:32:26;8.40;99.90
18444;DHT22;9350;53.176;8.194;2022-12-20T14:34:53;8.40;99.90
18444;DHT22;9350;53.176;8.194;2022-12-20T14:37:27;8.40;99.90
18444;DHT22;9350;53.176;8.194;2022-12-20T14:39:59;8.40;99.90
18444;DHT22;9350;53.176;8.194;2022-12-20T14:42:32;8.40;99.90
18444;DHT22;9350;53.176;8.194;2022-12-20T14:45:05;8.40;99.90
18444;DHT22;9350;53.176;8.194;2022-12-20T14:47:32;8.40;99.90
18444;DHT22;9350;53.176;8.194;2022-12-20T14:50:02;8.40;99.90
18444;DHT22;9350;53.176;8.194;2022-12-20T14:52:33;8.40;99.90
18444;DHT22;9350;53.176;8.194;2022-12-20T14:55:04;8.40;99.90
18444;DHT22;9350;53.176;8.194;2022-12-20T14:57:38;8.40;99.90
18444;DHT22;9350;53.176;8.194;2022-12-20T15:00:12;8.40;99.90
18444;DHT22;9350;53.176;8.194;2022-12-20T15:02:41;8.40;99.90
18444;DHT22;9350;53.176;8.194;2022-12-20T15:05:45;8.40;99.90
18444;DHT22;9350;53.176;8.194;2022-12-20T15:08:14;8.40;99.90
18444;DHT22;9350;53.176;8.194;2022-12-20T15:10:48;8.40;99.90
18444;DHT22;9350;53.176;8.194;2022-12-20T15:13:17;8.40;99.90
18444;DHT22;9350;53.176;8.194;2022-12-20T15:15:44;8.40;99.90
18444;DHT22;9350;53.176;8.194;2022-12-20T15:18:12;8.40;99.90
18444;DHT22;9350;53.176;8.194;2022-12-20T15:20:40;8.40;99.90
18444;DHT22;9350;53.176;8.194;2022-12-20T15:23:12;8.40;99.90
18444;DHT22;9350;53.176;8.194;2022-12-20T15:25:42;8.50;99.90
18444;DHT22;9350;53.176;8.194;2022-12-20T15:28:14;8.40;99.90
18444;DHT22;9350;53.176;8.194;2022-12-20T15:30:41;8.40;99.90
18444;DHT22;9350;53.176;8.194;2022-12-20T15:33:14;8.50;99.90
18444;DHT22;9350;53.176;8.194;2022-12-20T15:35:41;8.50;99.90
18444;DHT22;9350;53.176;8.194;2022-12-20T15:38:13;8.50;99.90
18444;DHT22;9350;53.176;8.194;2022-12-20T15:40:43;8.40;99.90
18444;DHT22;9350;53.176;8.194;2022-12-20T15:43:14;8.40;99.90
18444;DHT22;9350;53.176;8.194;2022-12-20T15:45:43;8.40;99.90
18444;DHT22;9350;53.176;8.194;2022-12-20T15:48:15;8.40;99.90
18444;DHT22;9350;53.176;8.194;2022-12-20T15:50:44;8.50;99.90
18444;DHT22;9350;53.176;8.194;2022-12-20T15:53:15;8.50;99.90
18444;DHT22;9350;53.176;8.194;2022-12-20T15:55:43;8.40;99.90
18444;DHT22;9350;53.176;8.194;2022-12-20T15:58:10;8.50;99.90
18444;DHT22;9350;53.176;8.194;2022-12-20T16:00:39;8.40;99.90
18444;DHT22;9350;53.176;8.194;2022-12-20T16:03:12;8.50;99.90
18444;DHT22;9350;53.176;8.194;2022-12-20T16:05:39;8.50;99.90
18444;DHT22;9350;53.176;8.194;2022-12-20T16:08:06;8.50;99.90
18444;DHT22;9350;53.176;8.194;2022-12-20T16:10:33;8.60;99.90
18444;DHT22;9350;53.176;8.194;2022-12-20T16:13:02;8.60;99.90
18444;DHT22;9350;53.176;8.194;2022-12-20T16:15:29;8.50;99.90
18444;DHT22;9350;53.176;8.194;2022-12-20T16:17:55;8.50;99.90
18444;DHT22;9350;53.176;8.194;2022-12-20T16:20:22;8.60;99.90
18444;DHT22;9350;53.176;8.194;2022-12-20T16:22:49;8.50;99.90
18444;DHT22;9350;53.176;8.194;2022-12-20T16:25:27;8.50;99.90
18444;DHT22;9350;53.176;8.194;2022-12-20T16:27:55;8.50;99.90
18444;DHT22;9350;53.176;8.194;2022-12-20T16:30:24;8.40;99.90
18444;DHT22;9350;53.176;8.194;2022-12-20T16:32:51;8.40;99.90
18444;DHT22;9350;53.176;8.194;2022-12-20T16:35:23;8.50;99.90
18444;DHT22;9350;53.176;8.194;2022-12-20T16:37:52;8.50;99.90
18444;DHT22;9350;53.176;8.194;2022-12-20T16:40:20;8.50;99.90
18444;DHT22;9350;53.176;8.194;2022-12-20T16:42:47;8.40;99.90
18444;DHT22;9350;53.176;8.194;2022-12-20T16:45:16;8.50;99.90